createdAt,value
2023-04-26T00:01:05.789Z,65.07
2023-04-26T00:03:00.748Z,65.13
2023-04-26T00:04:59.079Z,65.17
2023-04-26T00:06:52.293Z,65.37
2023-04-26T00:08:45.139Z,65.25
2023-04-26T00:10:38.184Z,65.29
2023-04-26T00:12:31.138Z,65.40
2023-04-26T00:14:24.430Z,65.41
2023-04-26T00:16:18.572Z,65.46
2023-04-26T00:18:12.835Z,65.59
2023-04-26T00:20:08.533Z,65.69
2023-04-26T00:22:01.410Z,65.82
2023-04-26T00:23:55.015Z,65.94
2023-04-26T00:25:47.919Z,66.09
2023-04-26T00:27:40.765Z,66.17
2023-04-26T00:29:34.531Z,66.15
2023-04-26T00:31:27.634Z,66.35
2023-04-26T00:33:20.843Z,66.65
2023-04-26T00:35:13.994Z,66.72
2023-04-26T00:37:07.365Z,66.71
2023-04-26T00:39:00.303Z,66.82
2023-04-26T00:40:53.863Z,66.92
2023-04-26T00:42:46.709Z,67.07
2023-04-26T00:44:40.610Z,67.11
2023-04-26T00:46:33.625Z,67.46
2023-04-26T00:48:26.471Z,67.30
2023-04-26T00:50:19.726Z,67.35
2023-04-26T00:52:13.023Z,67.45
2023-04-26T00:54:06.957Z,67.53
2023-04-26T00:56:00.192Z,67.55
2023-04-26T00:57:53.974Z,67.65
2023-04-26T00:59:47.024Z,67.61
2023-04-26T01:01:42.475Z,67.60
2023-04-26T01:03:35.733Z,67.58
2023-04-26T01:05:28.839Z,67.61
2023-04-26T01:07:21.686Z,67.76
2023-04-26T01:09:16.172Z,67.70
2023-04-26T01:11:09.830Z,67.49
2023-04-26T01:13:03.911Z,67.67
2023-04-26T01:14:57.474Z,67.75
2023-04-26T01:16:50.928Z,67.84
2023-04-26T01:18:43.702Z,67.76
2023-04-26T01:20:36.537Z,67.73
2023-04-26T01:22:33.157Z,67.87
2023-04-26T01:24:26.012Z,67.85
2023-04-26T01:26:19.039Z,67.92
2023-04-26T01:28:13.231Z,67.85
2023-04-26T01:30:07.303Z,67.71
2023-04-26T01:32:00.113Z,67.85
2023-04-26T01:33:54.535Z,67.91
2023-04-26T01:35:47.486Z,67.84
2023-04-26T01:37:40.533Z,67.79
2023-04-26T01:39:34.588Z,67.90
2023-04-26T01:41:27.550Z,68.02
2023-04-26T01:43:21.423Z,67.93
2023-04-26T01:45:14.264Z,67.98
2023-04-26T01:47:26.810Z,67.96
2023-04-26T01:49:19.823Z,68.03
2023-04-26T01:51:14.114Z,68.07
2023-04-26T01:53:07.250Z,68.27
2023-04-26T01:55:01.881Z,68.07
2023-04-26T01:56:54.788Z,68.15
2023-04-26T01:58:47.748Z,68.21
2023-04-26T02:00:40.683Z,68.23
2023-04-26T02:02:33.596Z,68.25
2023-04-26T02:04:28.236Z,68.13
2023-04-26T02:06:21.935Z,68.26
2023-04-26T02:08:15.550Z,68.32
2023-04-26T02:10:09.228Z,68.18
2023-04-26T02:12:02.988Z,68.37
2023-04-26T02:13:55.928Z,68.32
2023-04-26T02:15:50.136Z,68.28
2023-04-26T02:17:43.072Z,68.49
2023-04-26T02:19:36.108Z,68.42
2023-04-26T02:21:30.803Z,68.51
2023-04-26T02:23:24.458Z,68.61
2023-04-26T02:25:17.309Z,68.63
2023-04-26T02:27:10.152Z,68.64
2023-04-26T02:29:03.001Z,68.65
2023-04-26T02:30:56.872Z,68.66
2023-04-26T02:32:50.400Z,68.70
2023-04-26T02:34:44.922Z,68.86
2023-04-26T02:36:37.802Z,68.86
2023-04-26T02:38:31.016Z,68.93
2023-04-26T02:40:23.862Z,69.07
2023-04-26T02:42:17.528Z,69.14
2023-04-26T02:44:10.474Z,69.28
2023-04-26T02:46:03.422Z,69.27
2023-04-26T02:47:57.249Z,69.29
2023-04-26T02:49:51.400Z,69.41
2023-04-26T02:51:44.421Z,69.42
2023-04-26T02:53:37.362Z,69.43
2023-04-26T02:55:30.314Z,69.47
2023-04-26T02:57:23.469Z,69.63
2023-04-26T02:59:16.458Z,69.59
2023-04-26T03:01:09.380Z,69.75
2023-04-26T03:03:03.071Z,69.75
2023-04-26T03:04:56.184Z,69.83
2023-04-26T03:06:49.024Z,69.93
2023-04-26T03:08:41.874Z,69.78
2023-04-26T03:10:34.717Z,69.97
2023-04-26T03:12:27.661Z,69.78
2023-04-26T03:14:20.510Z,70.12
2023-04-26T03:16:13.400Z,70.08
2023-04-26T03:18:06.370Z,70.08
2023-04-26T03:20:00.598Z,70.02
2023-04-26T03:21:56.094Z,70.30
2023-04-26T03:23:49.150Z,70.33
2023-04-26T03:25:42.170Z,70.39
2023-04-26T03:27:35.245Z,70.39
2023-04-26T03:29:28.197Z,70.44
2023-04-26T03:31:21.936Z,70.70
2023-04-26T03:33:14.976Z,70.71
2023-04-26T03:35:08.890Z,70.80
2023-04-26T03:37:03.405Z,70.77
2023-04-26T03:38:56.722Z,71.00
2023-04-26T03:40:50.288Z,71.09
2023-04-26T03:42:43.128Z,71.14
2023-04-26T03:44:35.985Z,71.07
2023-04-26T03:46:29.159Z,71.09
2023-04-26T03:48:22.801Z,71.32
2023-04-26T03:50:15.693Z,71.36
2023-04-26T03:52:08.591Z,71.49
2023-04-26T03:54:01.750Z,71.52
2023-04-26T03:55:54.892Z,71.59
2023-04-26T03:57:48.358Z,71.69
2023-04-26T03:59:41.510Z,71.81
2023-04-26T04:01:34.351Z,71.73
2023-04-26T04:03:27.860Z,71.93
2023-04-26T04:05:21.588Z,71.87
2023-04-26T04:07:14.531Z,72.01
2023-04-26T04:09:07.499Z,72.09
2023-04-26T04:11:01.650Z,72.04
2023-04-26T04:12:54.813Z,72.08
2023-04-26T04:14:47.857Z,72.11
2023-04-26T04:16:40.809Z,72.22
2023-04-26T04:18:34.159Z,72.13
2023-04-26T04:20:27.113Z,72.11
2023-04-26T04:22:22.209Z,72.09
2023-04-26T04:24:15.667Z,72.16
2023-04-26T04:26:09.125Z,72.02
2023-04-26T04:28:05.155Z,71.93
2023-04-26T04:29:58.201Z,72.05
2023-04-26T04:31:51.462Z,71.98
2023-04-26T04:33:44.403Z,71.95
2023-04-26T04:35:37.964Z,71.89
2023-04-26T04:37:33.782Z,71.82
2023-04-26T04:39:26.853Z,71.72
2023-04-26T04:41:22.441Z,71.78
2023-04-26T04:43:16.850Z,71.65
2023-04-26T04:45:10.592Z,71.55
2023-04-26T04:47:04.868Z,71.51
2023-04-26T04:48:58.726Z,71.55
2023-04-26T04:50:51.605Z,71.43
2023-04-26T04:52:44.545Z,71.37
2023-04-26T04:54:37.587Z,71.29
2023-04-26T04:56:30.751Z,71.30
2023-04-26T04:58:24.049Z,71.24
2023-04-26T05:00:18.679Z,71.13
2023-04-26T05:02:30.554Z,71.24
2023-04-26T05:04:53.688Z,71.22
2023-04-26T05:06:47.403Z,71.05
2023-04-26T05:08:52.892Z,70.93
2023-04-26T05:11:26.134Z,70.85
2023-04-26T05:13:19.082Z,70.70
2023-04-26T05:15:12.442Z,70.64
2023-04-26T05:17:05.743Z,70.55
2023-04-26T05:18:59.007Z,70.64
2023-04-26T05:20:51.893Z,70.64
2023-04-26T05:22:44.744Z,70.47
2023-04-26T05:24:38.103Z,69.78
2023-04-26T05:26:31.256Z,69.68
2023-04-26T05:28:43.317Z,69.58
2023-04-26T05:30:59.959Z,69.47
2023-04-26T05:33:05.836Z,69.56
2023-04-26T05:35:08.985Z,69.35
2023-04-26T05:37:01.845Z,69.50
2023-04-26T05:38:54.749Z,69.34
2023-04-26T05:40:50.604Z,69.05
2023-04-26T05:42:43.858Z,68.77
2023-04-26T05:44:37.098Z,68.57
2023-04-26T05:46:30.165Z,68.42
2023-04-26T05:48:24.859Z,68.35
2023-04-26T05:50:17.705Z,67.96
2023-04-26T05:52:10.664Z,67.58
2023-04-26T05:54:03.799Z,67.45
2023-04-26T05:55:56.850Z,67.22
2023-04-26T05:57:50.926Z,67.31
2023-04-26T05:59:44.594Z,67.23
2023-04-26T06:01:37.696Z,67.04
2023-04-26T06:03:31.014Z,66.99
2023-04-26T06:05:24.432Z,66.58
2023-04-26T06:07:17.607Z,65.94
2023-04-26T06:09:13.218Z,65.61
2023-04-26T06:11:06.172Z,65.20
2023-04-26T06:12:59.218Z,65.40
2023-04-26T06:14:53.023Z,65.22
2023-04-26T06:16:47.280Z,65.06
2023-04-26T06:18:40.232Z,64.68
2023-04-26T06:20:33.621Z,64.99
2023-04-26T06:22:26.457Z,64.68
2023-04-26T06:24:20.359Z,64.45
2023-04-26T06:26:13.171Z,63.96
2023-04-26T06:28:06.040Z,63.74
2023-04-26T06:29:58.923Z,63.63
2023-04-26T06:31:51.972Z,63.10
2023-04-26T06:33:45.604Z,62.23
2023-04-26T06:35:42.080Z,61.49
2023-04-26T06:37:35.733Z,60.65
2023-04-26T06:39:28.795Z,60.81
2023-04-26T06:41:22.557Z,60.77
2023-04-26T06:43:15.502Z,60.64
2023-04-26T06:45:19.726Z,59.71
2023-04-26T06:47:12.670Z,59.80
2023-04-26T06:49:05.609Z,59.09
2023-04-26T06:50:58.456Z,58.59
2023-04-26T06:52:51.609Z,58.09
2023-04-26T06:54:55.921Z,58.87
2023-04-26T06:56:49.696Z,57.62
2023-04-26T06:59:03.007Z,57.02
2023-04-26T07:00:56.203Z,57.32
2023-04-26T07:02:49.505Z,57.10
2023-04-26T07:04:43.059Z,56.78
2023-04-26T07:06:38.197Z,56.07
2023-04-26T07:08:31.547Z,55.74
2023-04-26T07:10:26.207Z,55.92
2023-04-26T07:12:19.185Z,55.54
2023-04-26T07:14:12.340Z,55.65
2023-04-26T07:16:05.210Z,56.21
2023-04-26T07:17:58.319Z,55.74
2023-04-26T07:19:51.545Z,54.18
2023-04-26T07:21:44.448Z,54.91
2023-04-26T07:23:37.509Z,55.21
2023-04-26T07:25:30.437Z,54.33
2023-04-26T07:27:23.496Z,55.09
2023-04-26T07:29:16.542Z,54.43
2023-04-26T07:31:10.609Z,54.48
2023-04-26T07:33:04.007Z,53.68
2023-04-26T07:34:57.433Z,53.07
2023-04-26T07:36:50.276Z,54.00
2023-04-26T07:38:43.332Z,53.59
2023-04-26T07:40:36.811Z,53.49
2023-04-26T07:42:29.737Z,53.34
2023-04-26T07:44:22.580Z,53.88
2023-04-26T07:46:15.706Z,54.03
2023-04-26T07:48:08.918Z,55.00
2023-04-26T07:50:01.960Z,54.63
2023-04-26T07:51:56.532Z,53.30
2023-04-26T07:53:49.473Z,52.55
2023-04-26T07:55:42.424Z,51.18
2023-04-26T07:57:35.427Z,52.07
2023-04-26T07:59:28.421Z,50.89
2023-04-26T08:01:21.425Z,49.43
2023-04-26T08:03:18.005Z,49.48
2023-04-26T08:05:11.297Z,48.46
2023-04-26T08:07:04.316Z,47.66
2023-04-26T08:08:57.307Z,47.97
2023-04-26T08:10:50.207Z,48.94
2023-04-26T08:12:44.125Z,48.97
2023-04-26T08:14:39.539Z,49.71
2023-04-26T08:16:34.336Z,49.81
2023-04-26T08:18:30.861Z,50.15
2023-04-26T08:20:25.341Z,50.30
2023-04-26T08:22:20.437Z,49.87
2023-04-26T08:24:15.650Z,49.60
2023-04-26T08:26:10.285Z,48.72
2023-04-26T08:28:05.929Z,49.41
2023-04-26T08:30:01.082Z,49.02
2023-04-26T08:31:54.954Z,48.44
2023-04-26T08:33:47.797Z,48.19
2023-04-26T08:35:41.298Z,47.86
2023-04-26T08:37:34.209Z,46.70
2023-04-26T08:39:27.258Z,47.68
2023-04-26T08:41:23.526Z,48.17
2023-04-26T08:43:19.631Z,48.17
2023-04-26T08:45:12.550Z,49.47
2023-04-26T08:47:44.714Z,49.53
2023-04-26T08:49:44.939Z,50.48
2023-04-26T08:51:38.603Z,50.95
2023-04-26T08:53:35.040Z,49.75
2023-04-26T08:55:28.829Z,49.14
2023-04-26T08:57:22.782Z,48.25
2023-04-26T08:59:16.151Z,48.27
2023-04-26T09:01:10.480Z,48.38
2023-04-26T09:03:04.749Z,48.65
2023-04-26T09:04:57.870Z,49.24
2023-04-26T09:06:56.832Z,49.91
2023-04-26T09:08:53.384Z,49.00
2023-04-26T09:10:46.696Z,46.78
2023-04-26T09:12:42.442Z,45.96
2023-04-26T09:14:35.594Z,45.91
2023-04-26T09:16:36.932Z,46.02
2023-04-26T09:18:31.423Z,46.63
2023-04-26T09:20:28.017Z,47.16
2023-04-26T09:22:32.063Z,47.24
2023-04-26T09:24:25.009Z,46.40
2023-04-26T09:26:22.853Z,46.99
2023-04-26T09:28:20.129Z,47.83
2023-04-26T09:30:17.763Z,48.53
2023-04-26T09:32:11.272Z,48.06
2023-04-26T09:34:04.493Z,47.29
2023-04-26T09:36:13.449Z,47.07
2023-04-26T09:38:13.294Z,46.86
2023-04-26T09:40:19.983Z,47.69
2023-04-26T09:42:19.002Z,48.32
2023-04-26T09:44:24.637Z,48.39
2023-04-26T09:46:26.355Z,48.62
2023-04-26T09:48:23.167Z,48.34
2023-04-26T09:50:30.105Z,48.18
2023-04-26T09:52:23.052Z,47.66
2023-04-26T09:54:16.000Z,47.85
2023-04-26T09:56:11.830Z,47.67
2023-04-26T09:58:09.464Z,47.26
2023-04-26T10:00:12.246Z,47.14
2023-04-26T10:02:10.318Z,46.84
2023-04-26T10:04:04.690Z,46.91
2023-04-26T10:05:57.751Z,48.68
2023-04-26T10:07:51.930Z,48.04
2023-04-26T10:09:45.489Z,47.76
2023-04-26T10:11:40.385Z,47.59
2023-04-26T10:13:34.267Z,45.60
2023-04-26T10:15:28.025Z,45.07
2023-04-26T10:17:21.212Z,45.11
2023-04-26T10:19:14.427Z,45.47
2023-04-26T10:21:23.149Z,45.94
2023-04-26T10:23:25.511Z,46.50
2023-04-26T10:25:19.084Z,46.68
2023-04-26T10:27:11.886Z,46.93
2023-04-26T10:29:05.321Z,47.08
2023-04-26T10:31:01.798Z,48.07
2023-04-26T10:32:57.450Z,47.57
2023-04-26T10:35:12.364Z,48.12
2023-04-26T10:37:18.465Z,48.80
2023-04-26T10:39:23.173Z,49.79
2023-04-26T10:41:33.109Z,50.47
2023-04-26T10:43:30.083Z,50.66
2023-04-26T10:45:30.354Z,51.25
2023-04-26T10:47:29.612Z,51.44
2023-04-26T10:49:26.667Z,51.39
2023-04-26T10:51:19.693Z,51.82
2023-04-26T10:53:13.658Z,51.06
2023-04-26T10:55:08.118Z,51.36
2023-04-26T10:57:01.383Z,50.96
2023-04-26T10:59:18.035Z,50.77
2023-04-26T11:01:21.571Z,50.32
2023-04-26T11:03:15.558Z,49.15
2023-04-26T11:05:09.199Z,48.34
2023-04-26T11:07:03.707Z,47.35
2023-04-26T11:09:00.745Z,47.58
2023-04-26T11:11:03.341Z,47.98
2023-04-26T11:13:01.904Z,45.38
2023-04-26T11:14:56.081Z,45.54
2023-04-26T11:16:48.926Z,44.75
2023-04-26T11:18:44.093Z,43.98
2023-04-26T11:20:36.972Z,43.62
2023-04-26T11:22:30.049Z,44.99
2023-04-26T11:24:27.689Z,45.07
2023-04-26T11:26:20.509Z,44.09
2023-04-26T11:28:13.386Z,44.34
2023-04-26T11:30:07.141Z,45.18
2023-04-26T11:32:00.036Z,45.59
2023-04-26T11:33:52.942Z,45.44
2023-04-26T11:35:52.398Z,44.54
2023-04-26T11:37:45.953Z,45.10
2023-04-26T11:39:38.730Z,44.64
2023-04-26T11:41:32.203Z,45.39
2023-04-26T11:43:39.521Z,45.52
2023-04-26T11:45:34.203Z,45.87
2023-04-26T11:47:30.837Z,44.33
2023-04-26T11:49:24.375Z,44.52
2023-04-26T11:51:17.630Z,44.46
2023-04-26T11:53:10.600Z,45.16
2023-04-26T11:55:07.461Z,45.30
2023-04-26T11:57:06.023Z,45.21
2023-04-26T11:59:00.607Z,45.24
2023-04-26T12:01:02.053Z,45.16
2023-04-26T12:03:06.576Z,44.77
2023-04-26T12:05:00.189Z,45.22
2023-04-26T12:06:53.369Z,44.71
2023-04-26T12:08:53.814Z,44.78
2023-04-26T12:10:47.815Z,42.69
2023-04-26T12:12:45.750Z,42.51
2023-04-26T12:14:42.293Z,42.05
2023-04-26T12:16:44.436Z,41.07
2023-04-26T12:18:37.784Z,40.14
2023-04-26T12:20:34.877Z,40.58
2023-04-26T12:22:28.595Z,40.55
2023-04-26T12:24:30.806Z,41.41
2023-04-26T12:26:44.459Z,42.10
2023-04-26T12:28:37.858Z,40.44
2023-04-26T12:31:27.572Z,39.66
2023-04-26T12:33:31.188Z,39.79
2023-04-26T12:35:25.326Z,41.14
2023-04-26T12:37:18.358Z,40.96
2023-04-26T12:39:14.533Z,40.85
2023-04-26T12:41:07.939Z,40.18
2023-04-26T12:43:01.205Z,39.21
2023-04-26T12:44:54.042Z,39.42
2023-04-26T12:46:47.106Z,39.03
2023-04-26T12:48:43.191Z,39.60
2023-04-26T12:50:57.674Z,40.34
2023-04-26T12:53:07.821Z,39.80
2023-04-26T12:55:00.660Z,40.41
2023-04-26T12:56:53.845Z,40.57
2023-04-26T12:58:47.173Z,40.60
2023-04-26T13:00:39.971Z,39.59
2023-04-26T13:02:34.327Z,38.93
2023-04-26T13:04:27.712Z,37.97
2023-04-26T13:06:21.133Z,39.15
2023-04-26T13:08:14.547Z,38.83
2023-04-26T13:10:12.725Z,39.18
2023-04-26T13:12:06.220Z,39.57
2023-04-26T13:13:59.784Z,38.98
2023-04-26T13:15:53.694Z,38.55
2023-04-26T13:17:47.332Z,38.24
2023-04-26T13:19:40.257Z,38.98
2023-04-26T13:21:33.284Z,39.25
2023-04-26T13:23:26.155Z,39.32
2023-04-26T13:25:19.404Z,39.36
2023-04-26T13:27:13.305Z,37.41
2023-04-26T13:29:06.304Z,36.57
2023-04-26T13:30:59.710Z,35.95
2023-04-26T13:32:52.782Z,37.44
2023-04-26T13:34:45.886Z,38.41
2023-04-26T13:36:39.591Z,38.08
2023-04-26T13:38:33.017Z,38.42
2023-04-26T13:40:26.062Z,39.19
2023-04-26T13:42:19.111Z,39.62
2023-04-26T13:44:14.331Z,38.49
2023-04-26T13:46:08.118Z,38.44
2023-04-26T13:48:01.163Z,39.05
2023-04-26T13:49:54.620Z,39.47
2023-04-26T13:51:47.532Z,40.31
2023-04-26T13:53:40.898Z,41.01
2023-04-26T13:55:33.843Z,41.14
2023-04-26T13:57:26.658Z,41.69
2023-04-26T13:59:20.674Z,41.88
2023-04-26T14:01:14.268Z,42.33
2023-04-26T14:03:15.601Z,42.37
2023-04-26T14:05:10.341Z,42.13
2023-04-26T14:07:05.243Z,42.64
2023-04-26T14:08:58.616Z,41.96
2023-04-26T14:10:51.670Z,41.53
2023-04-26T14:12:44.611Z,41.40
2023-04-26T14:14:37.564Z,40.74
2023-04-26T14:16:30.576Z,40.64
2023-04-26T14:18:23.649Z,41.30
2023-04-26T14:20:16.615Z,40.34
2023-04-26T14:22:13.169Z,39.70
2023-04-26T14:24:06.602Z,39.39
2023-04-26T14:25:59.603Z,39.84
2023-04-26T14:27:54.953Z,40.75
2023-04-26T14:29:48.027Z,40.87
2023-04-26T14:31:40.974Z,40.78
2023-04-26T14:33:34.412Z,40.50
2023-04-26T14:35:27.260Z,40.43
2023-04-26T14:37:22.938Z,40.96
2023-04-26T14:39:16.340Z,41.31
2023-04-26T14:41:13.685Z,41.98
2023-04-26T14:43:06.556Z,42.43
2023-04-26T14:44:59.749Z,42.48
2023-04-26T14:46:53.551Z,42.54
2023-04-26T14:48:46.910Z,42.05
2023-04-26T14:50:40.219Z,41.44
2023-04-26T14:52:36.512Z,40.97
2023-04-26T14:54:29.360Z,41.52
2023-04-26T14:56:23.925Z,41.14
2023-04-26T14:58:19.395Z,41.53
2023-04-26T15:00:16.982Z,41.66
2023-04-26T15:02:10.026Z,41.78
2023-04-26T15:04:03.747Z,41.72
2023-04-26T15:05:57.179Z,41.59
2023-04-26T15:07:50.996Z,41.65
2023-04-26T15:09:43.875Z,41.70
2023-04-26T15:11:53.753Z,40.96
2023-04-26T15:13:46.978Z,40.80
2023-04-26T15:15:39.924Z,41.29
2023-04-26T15:17:34.625Z,41.17
2023-04-26T15:19:28.621Z,40.01
2023-04-26T15:21:23.405Z,39.88
2023-04-26T15:23:16.927Z,39.91
2023-04-26T15:25:11.464Z,39.70
2023-04-26T15:27:05.516Z,39.85
2023-04-26T15:28:58.659Z,39.70
2023-04-26T15:30:57.079Z,39.88
2023-04-26T15:32:53.073Z,39.72
2023-04-26T15:34:46.000Z,40.02
2023-04-26T15:36:38.853Z,40.22
2023-04-26T15:38:34.049Z,40.14
2023-04-26T15:40:28.319Z,40.06
2023-04-26T15:42:21.886Z,39.82
2023-04-26T15:44:14.988Z,39.89
2023-04-26T15:46:08.045Z,40.30
2023-04-26T15:48:01.340Z,40.60
2023-04-26T15:49:55.210Z,41.25
2023-04-26T15:51:48.163Z,42.06
2023-04-26T15:53:43.851Z,42.30
2023-04-26T15:55:37.234Z,42.50
2023-04-26T15:57:30.386Z,42.38
2023-04-26T15:59:23.334Z,42.71
2023-04-26T16:01:16.648Z,42.79
2023-04-26T16:03:10.115Z,43.03
2023-04-26T16:05:04.663Z,43.19
2023-04-26T16:06:57.704Z,43.14
2023-04-26T16:08:50.851Z,42.97
2023-04-26T16:10:43.789Z,43.22
2023-04-26T16:12:41.853Z,43.02
2023-04-26T16:14:34.631Z,42.57
2023-04-26T16:16:27.678Z,42.88
2023-04-26T16:18:23.466Z,42.87
2023-04-26T16:20:16.513Z,42.77
2023-04-26T16:22:09.461Z,42.78
2023-04-26T16:24:02.545Z,43.07
2023-04-26T16:25:55.714Z,42.88
2023-04-26T16:27:48.823Z,42.65
2023-04-26T16:29:41.687Z,42.67
2023-04-26T16:31:34.942Z,43.12
2023-04-26T16:33:28.361Z,42.93
2023-04-26T16:35:21.644Z,43.00
2023-04-26T16:37:14.939Z,43.24
2023-04-26T16:39:07.994Z,43.46
2023-04-26T16:41:01.894Z,43.83
2023-04-26T16:42:54.981Z,44.24
2023-04-26T16:44:47.814Z,44.05
2023-04-26T16:46:41.920Z,44.77
2023-04-26T16:48:36.731Z,44.81
2023-04-26T16:50:29.553Z,44.71
2023-04-26T16:52:22.334Z,44.13
2023-04-26T16:54:15.125Z,44.07
2023-04-26T16:56:08.382Z,44.14
2023-04-26T16:58:01.215Z,44.08
2023-04-26T16:59:54.271Z,44.28
2023-04-26T17:01:47.921Z,44.68
2023-04-26T17:03:43.136Z,44.93
2023-04-26T17:05:41.199Z,45.56
2023-04-26T17:07:34.316Z,45.93
2023-04-26T17:09:27.811Z,46.21
2023-04-26T17:11:20.615Z,46.30
2023-04-26T17:13:13.917Z,46.55
2023-04-26T17:15:08.692Z,46.31
2023-04-26T17:17:01.549Z,46.42
2023-04-26T17:18:54.386Z,46.15
2023-04-26T17:20:52.878Z,45.14
2023-04-26T17:22:45.816Z,45.49
2023-04-26T17:24:38.761Z,45.87
2023-04-26T17:26:31.593Z,46.15
2023-04-26T17:28:24.456Z,46.34
2023-04-26T17:30:17.411Z,45.98
2023-04-26T17:32:10.484Z,46.12
2023-04-26T17:34:04.878Z,46.42
2023-04-26T17:35:58.097Z,46.68
2023-04-26T17:37:51.249Z,46.64
2023-04-26T17:39:44.194Z,46.93
2023-04-26T17:41:38.497Z,47.10
2023-04-26T17:43:31.373Z,47.00
2023-04-26T17:45:24.595Z,47.07
2023-04-26T17:47:17.831Z,47.54
2023-04-26T17:49:10.979Z,47.65
2023-04-26T17:51:03.965Z,47.78
2023-04-26T17:52:57.371Z,47.83
2023-04-26T17:54:50.238Z,47.82
2023-04-26T17:56:46.469Z,47.79
2023-04-26T17:58:39.323Z,48.13
2023-04-26T18:00:32.275Z,48.22
2023-04-26T18:02:25.474Z,48.29
2023-04-26T18:04:18.937Z,48.45
2023-04-26T18:06:12.433Z,48.54
2023-04-26T18:08:05.415Z,48.73
2023-04-26T18:09:58.548Z,48.86
2023-04-26T18:11:51.479Z,48.95
2023-04-26T18:13:44.327Z,48.70
2023-04-26T18:15:37.170Z,48.76
2023-04-26T18:17:30.155Z,48.75
2023-04-26T18:19:23.473Z,48.86
2023-04-26T18:21:16.733Z,49.16
2023-04-26T18:23:10.092Z,49.61
2023-04-26T18:25:04.014Z,49.52
2023-04-26T18:26:56.906Z,49.76
2023-04-26T18:28:49.756Z,50.06
2023-04-26T18:30:42.718Z,50.25
2023-04-26T18:32:35.713Z,50.54
2023-04-26T18:34:28.717Z,50.58
2023-04-26T18:36:23.190Z,50.79
2023-04-26T18:38:19.512Z,50.88
2023-04-26T18:40:13.074Z,51.41
2023-04-26T18:42:06.958Z,51.41
2023-04-26T18:43:59.888Z,51.67
2023-04-26T18:45:53.030Z,51.65
2023-04-26T18:47:46.306Z,51.92
2023-04-26T18:49:39.169Z,52.13
2023-04-26T18:51:32.916Z,52.16
2023-04-26T18:53:25.864Z,52.45
2023-04-26T18:55:18.963Z,52.50
2023-04-26T18:57:11.959Z,52.82
2023-04-26T18:59:04.908Z,52.78
2023-04-26T19:00:57.855Z,52.89
2023-04-26T19:02:51.311Z,52.92
2023-04-26T19:04:45.509Z,53.25
2023-04-26T19:06:42.645Z,53.20
2023-04-26T19:08:36.206Z,53.30
2023-04-26T19:10:29.051Z,53.53
2023-04-26T19:12:22.104Z,53.48
2023-04-26T19:14:14.948Z,53.79
2023-04-26T19:16:09.239Z,53.86
2023-04-26T19:18:02.816Z,54.04
2023-04-26T19:19:55.845Z,54.19
2023-04-26T19:21:48.608Z,54.39
2023-04-26T19:23:41.539Z,54.62
2023-04-26T19:25:34.889Z,54.67
2023-04-26T19:27:27.842Z,55.03
2023-04-26T19:29:21.092Z,55.09
2023-04-26T19:31:14.060Z,55.11
2023-04-26T19:33:07.474Z,55.31
2023-04-26T19:35:00.736Z,55.16
2023-04-26T19:36:53.910Z,55.28
2023-04-26T19:38:48.613Z,55.52
2023-04-26T19:40:42.763Z,55.59
2023-04-26T19:42:35.828Z,55.60
2023-04-26T19:44:29.112Z,55.66
2023-04-26T19:46:22.144Z,55.70
2023-04-26T19:48:15.093Z,55.90
2023-04-26T19:50:08.541Z,55.90
2023-04-26T19:52:03.236Z,55.87
2023-04-26T19:53:56.951Z,55.96
2023-04-26T19:55:51.640Z,56.06
2023-04-26T19:57:46.275Z,56.25
2023-04-26T19:59:39.528Z,56.29
2023-04-26T20:01:32.473Z,56.57
2023-04-26T20:03:27.304Z,56.57
2023-04-26T20:05:20.937Z,56.63
2023-04-26T20:07:14.665Z,56.89
2023-04-26T20:09:09.595Z,56.97
2023-04-26T20:11:04.811Z,57.09
2023-04-26T20:12:58.853Z,57.16
2023-04-26T20:14:51.818Z,57.22
2023-04-26T20:16:44.722Z,57.24
2023-04-26T20:18:38.335Z,57.25
2023-04-26T20:20:32.866Z,57.45
2023-04-26T20:22:26.681Z,57.53
2023-04-26T20:24:19.629Z,57.56
2023-04-26T20:26:17.037Z,57.70
2023-04-26T20:28:14.541Z,57.74
2023-04-26T20:30:15.796Z,57.87
2023-04-26T20:32:09.266Z,57.97
2023-04-26T20:34:03.107Z,58.06
2023-04-26T20:35:56.259Z,58.16
2023-04-26T20:37:49.105Z,58.31
2023-04-26T20:39:42.873Z,58.63
2023-04-26T20:41:36.546Z,58.70
2023-04-26T20:43:29.485Z,58.85
2023-04-26T20:45:22.329Z,59.02
2023-04-26T20:47:15.809Z,59.09
2023-04-26T20:49:09.315Z,59.29
2023-04-26T20:51:03.314Z,59.41
2023-04-26T20:52:56.380Z,59.49
2023-04-26T20:54:49.230Z,59.57
2023-04-26T20:56:41.998Z,59.61
2023-04-26T20:58:35.021Z,59.70
2023-04-26T21:00:27.966Z,59.85
2023-04-26T21:02:21.405Z,59.87
2023-04-26T21:04:14.694Z,60.08
2023-04-26T21:06:07.697Z,60.18
2023-04-26T21:08:00.701Z,60.16
2023-04-26T21:09:53.706Z,60.32
2023-04-26T21:11:46.577Z,60.39
2023-04-26T21:13:39.527Z,60.49
2023-04-26T21:15:33.538Z,60.43
2023-04-26T21:17:26.467Z,60.59
2023-04-26T21:19:20.111Z,60.62
2023-04-26T21:21:12.962Z,60.65
2023-04-26T21:23:05.757Z,60.74
2023-04-26T21:24:58.583Z,60.81
2023-04-26T21:26:51.496Z,60.91
2023-04-26T21:28:44.339Z,61.07
2023-04-26T21:30:37.185Z,61.15
2023-04-26T21:32:30.040Z,61.32
2023-04-26T21:34:22.977Z,61.23
2023-04-26T21:36:16.438Z,61.31
2023-04-26T21:38:09.286Z,61.50
2023-04-26T21:40:02.131Z,61.56
2023-04-26T21:41:54.977Z,61.66
2023-04-26T21:43:47.826Z,61.66
2023-04-26T21:45:41.589Z,61.75
2023-04-26T21:47:34.527Z,61.82
2023-04-26T21:49:27.398Z,61.81
2023-04-26T21:51:20.340Z,61.73
2023-04-26T21:53:13.094Z,61.87
2023-04-26T21:55:06.840Z,61.90
2023-04-26T21:56:59.692Z,62.04
2023-04-26T21:58:52.707Z,62.08
2023-04-26T22:00:45.831Z,62.10
2023-04-26T22:02:39.546Z,62.26
2023-04-26T22:04:32.917Z,62.19
2023-04-26T22:06:25.762Z,62.22
2023-04-26T22:08:18.619Z,62.33
2023-04-26T22:10:11.455Z,62.33
2023-04-26T22:12:04.707Z,62.45
2023-04-26T22:13:57.554Z,62.51
2023-04-26T22:15:51.422Z,62.54
2023-04-26T22:17:44.306Z,62.61
2023-04-26T22:19:37.216Z,62.68
2023-04-26T22:21:30.165Z,62.75
2023-04-26T22:23:23.010Z,62.68
2023-04-26T22:25:16.057Z,62.79
2023-04-26T22:27:09.016Z,62.75
2023-04-26T22:29:02.420Z,62.93
2023-04-26T22:30:56.375Z,62.95
2023-04-26T22:32:53.619Z,62.98
2023-04-26T22:34:46.751Z,63.21
2023-04-26T22:36:39.797Z,63.29
2023-04-26T22:38:32.642Z,63.34
2023-04-26T22:40:25.686Z,63.43
2023-04-26T22:42:18.537Z,63.47
2023-04-26T22:44:11.495Z,63.57
2023-04-26T22:46:04.472Z,63.59
2023-04-26T22:47:57.433Z,63.55
2023-04-26T22:49:50.535Z,63.76
2023-04-26T22:51:48.221Z,63.86
2023-04-26T22:53:50.660Z,63.82
2023-04-26T22:55:44.023Z,63.90
2023-04-26T22:57:37.587Z,64.10
2023-04-26T22:59:34.332Z,64.20
2023-04-26T23:01:27.205Z,64.31
2023-04-26T23:03:20.372Z,64.43
2023-04-26T23:05:13.366Z,64.60
2023-04-26T23:07:06.213Z,64.67
2023-04-26T23:08:59.064Z,64.82
2023-04-26T23:10:52.111Z,64.90
2023-04-26T23:12:44.955Z,65.06
2023-04-26T23:14:37.922Z,65.26
2023-04-26T23:16:30.883Z,65.19
2023-04-26T23:18:26.661Z,65.41
2023-04-26T23:20:19.646Z,65.51
2023-04-26T23:22:12.561Z,65.62
2023-04-26T23:24:06.143Z,65.68
2023-04-26T23:25:58.971Z,65.80
2023-04-26T23:27:51.921Z,65.75
2023-04-26T23:29:44.767Z,65.86
2023-04-26T23:31:37.639Z,65.89
2023-04-26T23:33:30.561Z,65.99
2023-04-26T23:35:23.407Z,66.02
2023-04-26T23:37:16.351Z,66.01
2023-04-26T23:39:09.301Z,66.14
2023-04-26T23:41:02.142Z,66.17
2023-04-26T23:42:54.991Z,66.07
2023-04-26T23:44:47.840Z,66.26
2023-04-26T23:46:40.681Z,66.29
2023-04-26T23:48:33.734Z,66.30
2023-04-26T23:50:26.578Z,66.23
2023-04-26T23:52:19.535Z,66.42
2023-04-26T23:54:12.991Z,66.43
2023-04-26T23:56:07.348Z,66.41
2023-04-26T23:58:00.630Z,66.50
2023-04-26T23:59:53.475Z,66.69
